createdAt,value
2023-04-09T11:27:18.179Z,6.50
2023-04-09T11:29:15.025Z,10.43
2023-04-09T11:30:55.125Z,14.98
2023-04-09T11:32:49.116Z,9.85
2023-04-09T11:34:36.067Z,10.55
2023-04-09T11:36:35.877Z,7.40
2023-04-09T11:38:22.936Z,6.85
2023-04-09T11:40:15.962Z,6.45
2023-04-09T11:42:17.949Z,15.95
2023-04-09T11:44:05.188Z,11.93
2023-04-09T11:45:59.098Z,12.20
2023-04-09T11:47:40.773Z,8.77
2023-04-09T11:49:34.914Z,12.88
2023-04-09T11:51:28.006Z,5.72
2023-04-09T11:53:09.296Z,10.10
2023-04-09T11:55:01.947Z,8.35
2023-04-09T11:56:50.046Z,6.00
2023-04-09T11:58:52.209Z,5.05
2023-04-09T12:00:42.106Z,5.05
2023-04-09T12:02:36.170Z,8.27
2023-04-09T12:04:21.393Z,6.63
2023-04-09T12:06:15.973Z,7.30
2023-04-09T12:08:05.988Z,6.45
2023-04-09T12:09:57.922Z,5.32
2023-04-09T12:11:52.131Z,5.43
2023-04-09T12:13:50.052Z,12.70
2023-04-09T12:15:52.958Z,7.30
2023-04-09T12:17:39.983Z,4.20
2023-04-09T12:19:33.038Z,3.47
2023-04-09T12:21:32.967Z,4.40
2023-04-09T12:23:20.034Z,3.60
2023-04-09T12:25:13.072Z,6.35
2023-04-09T12:26:53.671Z,4.38
2023-04-09T12:28:46.230Z,5.80
2023-04-09T12:30:33.104Z,4.68
2023-04-09T12:32:21.254Z,3.13
2023-04-09T12:34:01.267Z,4.88
2023-04-09T12:35:48.107Z,4.88
2023-04-09T12:37:28.931Z,4.70
2023-04-09T12:39:22.294Z,4.10
2023-04-09T12:53:10.668Z,5.97
2023-04-09T12:55:10.392Z,4.78
2023-04-09T12:56:57.323Z,4.00
2023-04-09T12:58:50.615Z,4.80
2023-04-09T13:00:50.335Z,5.10
2023-04-09T13:02:37.562Z,6.70
2023-04-09T13:04:30.538Z,11.55
2023-04-09T13:06:10.436Z,9.10
2023-04-09T13:08:03.431Z,5.78
2023-04-09T13:09:51.663Z,9.02
2023-04-09T13:11:37.716Z,8.68
2023-04-09T13:13:17.208Z,9.68
2023-04-09T13:15:05.441Z,10.70
2023-04-09T13:16:45.752Z,8.32
2023-04-09T13:18:38.360Z,8.65
2023-04-09T13:20:25.499Z,6.88
2023-04-09T13:22:25.447Z,5.32
2023-04-09T13:24:12.271Z,6.38
2023-04-09T13:26:07.510Z,13.00
2023-04-09T13:27:47.088Z,6.38
2023-04-09T13:29:39.408Z,6.60
2023-04-09T13:31:26.946Z,5.47
2023-04-09T13:33:12.593Z,10.20
2023-04-09T13:34:53.825Z,4.88
2023-04-09T13:36:40.725Z,8.70
2023-04-09T13:38:20.650Z,7.90
2023-04-09T13:40:15.363Z,5.70
2023-04-09T13:42:12.542Z,6.35
2023-04-09T13:44:13.363Z,9.07
2023-04-09T13:46:00.188Z,7.63
2023-04-09T13:47:53.776Z,10.98
2023-04-09T13:49:53.400Z,7.07
2023-04-09T13:51:40.177Z,8.68
2023-04-09T13:53:34.654Z,13.88
2023-04-09T13:55:27.478Z,7.60
2023-04-09T13:57:29.340Z,9.63
2023-04-09T13:59:23.626Z,8.95
2023-04-09T14:01:09.737Z,10.30
2023-04-09T14:02:49.250Z,15.20
2023-04-09T14:04:36.699Z,12.57
2023-04-09T14:06:16.703Z,11.23
2023-04-09T14:08:10.400Z,14.20
2023-04-09T14:09:58.006Z,10.80
2023-04-09T14:11:57.564Z,11.85
2023-04-09T14:13:46.076Z,9.80
2023-04-09T14:15:39.507Z,9.65
2023-04-09T14:17:19.329Z,16.42
2023-04-09T14:19:13.457Z,15.15
2023-04-09T14:21:00.601Z,22.30
2023-04-09T14:22:49.577Z,14.18
2023-04-09T14:24:29.403Z,7.65
2023-04-09T14:26:16.490Z,6.00
2023-04-09T14:27:56.488Z,5.78
2023-04-09T14:29:51.445Z,7.25
2023-04-09T14:31:44.650Z,9.85
2023-04-09T14:33:24.416Z,5.72
2023-04-09T14:35:17.438Z,5.28
2023-04-09T14:37:03.480Z,18.52
2023-04-09T14:38:49.682Z,7.97
2023-04-09T14:40:29.242Z,14.95
2023-04-09T14:42:16.702Z,15.25
2023-04-09T14:43:56.797Z,12.45
2023-04-09T14:45:51.401Z,10.98
2023-04-09T14:47:38.623Z,11.23
2023-04-09T14:49:31.628Z,8.95
2023-04-09T14:51:18.400Z,9.10
2023-04-09T14:53:04.608Z,9.35
2023-04-09T14:54:50.773Z,10.40
2023-04-09T14:56:37.460Z,11.73
2023-04-09T14:58:31.604Z,11.95
2023-04-09T15:00:13.367Z,11.50
2023-04-09T15:02:08.589Z,12.43
2023-04-09T15:03:55.724Z,12.13
2023-04-09T15:05:41.780Z,9.65
2023-04-09T15:07:23.236Z,7.45
2023-04-09T15:09:11.512Z,12.35
2023-04-09T15:10:51.066Z,12.40
2023-04-09T15:12:44.447Z,17.45
2023-04-09T15:14:31.599Z,11.07
2023-04-09T15:16:28.701Z,16.63
2023-04-09T15:18:16.481Z,10.27
2023-04-09T15:20:02.628Z,26.58
2023-04-09T15:21:48.728Z,11.77
2023-04-09T15:23:32.001Z,17.65
2023-04-09T15:25:19.019Z,11.93
2023-04-09T15:26:58.951Z,16.67
2023-04-09T15:28:52.814Z,16.10
2023-04-09T15:30:39.826Z,11.25
2023-04-09T15:32:39.585Z,16.65
2023-04-09T15:34:28.351Z,15.45
2023-04-09T15:36:22.769Z,13.55
2023-04-09T15:38:02.209Z,16.10
2023-04-09T15:39:54.514Z,13.90
2023-04-09T15:41:40.703Z,17.65
2023-04-09T15:43:27.564Z,12.65
2023-04-09T15:45:08.521Z,9.15
2023-04-09T15:46:55.689Z,10.18
2023-04-09T15:48:38.132Z,15.77
2023-04-09T15:50:32.467Z,11.85
2023-04-09T15:52:25.849Z,10.32
2023-04-09T15:54:05.597Z,11.13
2023-04-09T15:56:00.489Z,14.43
2023-04-09T15:57:53.775Z,23.35
2023-04-09T15:59:39.844Z,19.40
2023-04-09T16:01:19.607Z,17.35
2023-04-09T16:03:06.727Z,19.77
2023-04-09T16:04:46.789Z,30.77
2023-04-09T16:06:43.541Z,31.05
2023-04-09T16:08:29.771Z,28.70
2023-04-09T16:10:16.362Z,31.48
2023-04-09T16:12:09.529Z,27.85
2023-04-09T16:13:55.884Z,20.38
2023-04-09T16:15:41.755Z,16.42
2023-04-09T16:17:21.428Z,18.73
2023-04-09T16:19:07.930Z,16.40
2023-04-09T16:20:50.378Z,15.25
2023-04-09T16:22:45.634Z,14.45
2023-04-09T16:24:33.623Z,13.88
2023-04-09T16:26:33.521Z,12.38
2023-04-09T16:28:22.106Z,18.10
2023-04-09T16:30:14.712Z,12.57
2023-04-09T16:31:55.305Z,15.13
2023-04-09T16:33:52.566Z,13.38
2023-04-09T16:35:39.680Z,13.23
2023-04-09T16:37:25.718Z,14.57
2023-04-09T16:39:06.811Z,13.10
2023-04-09T16:40:53.743Z,20.30
2023-04-09T16:42:34.739Z,18.63
2023-04-09T16:44:28.595Z,30.40
2023-04-09T16:46:21.934Z,18.35
2023-04-09T16:48:01.611Z,13.90
2023-04-09T16:49:54.641Z,23.98
2023-04-09T16:51:41.940Z,29.77
2023-04-09T16:53:28.111Z,23.83
2023-04-09T16:55:09.708Z,27.95
2023-04-09T16:57:03.854Z,26.55
2023-04-09T16:58:43.363Z,22.30
2023-04-09T17:00:36.572Z,23.00
2023-04-09T17:02:22.628Z,29.58
2023-04-09T17:04:08.931Z,28.55
2023-04-09T17:06:02.512Z,33.72
2023-04-09T17:07:48.681Z,38.45
2023-04-09T17:09:48.573Z,34.03
2023-04-09T17:11:38.100Z,23.42
2023-04-09T17:13:31.812Z,19.83
2023-04-09T17:15:12.587Z,16.00
2023-04-09T17:17:05.647Z,14.07
2023-04-09T17:18:53.150Z,12.68
2023-04-09T17:20:39.948Z,14.50
2023-04-09T17:22:19.442Z,15.23
2023-04-09T17:24:06.820Z,10.30
2023-04-09T17:25:47.286Z,12.50
2023-04-09T17:27:41.557Z,12.10
2023-04-09T17:29:27.787Z,11.23
2023-04-09T17:31:30.594Z,14.45
2023-04-09T17:33:30.538Z,22.23
2023-04-09T17:35:23.771Z,15.18
2023-04-09T17:37:09.917Z,16.33
2023-04-09T17:38:52.071Z,12.18
2023-04-09T17:40:38.792Z,16.77
2023-04-09T17:42:24.836Z,16.33
2023-04-09T17:44:06.074Z,18.15
2023-04-09T17:45:52.871Z,13.85
2023-04-09T17:47:32.797Z,20.27
2023-04-09T17:49:25.598Z,18.70
2023-04-09T17:51:12.003Z,18.15
2023-04-09T17:53:04.830Z,12.30
2023-04-09T17:54:51.616Z,11.98
2023-04-09T17:56:45.694Z,14.70
2023-04-09T17:58:45.567Z,18.13
2023-04-09T18:00:34.417Z,25.52
2023-04-09T18:02:28.045Z,19.13
2023-04-09T18:04:07.675Z,19.88
2023-04-09T18:06:00.579Z,20.80
2023-04-09T18:07:46.650Z,18.67
2023-04-09T18:09:32.982Z,19.80
2023-04-09T18:11:14.159Z,27.70
2023-04-09T18:12:59.687Z,26.38
2023-04-09T18:14:39.850Z,20.92
2023-04-09T18:16:34.647Z,25.70
2023-04-09T18:18:21.831Z,18.65
2023-04-09T18:20:22.612Z,22.42
2023-04-09T18:22:09.658Z,17.75
2023-04-09T18:24:02.933Z,22.38
2023-04-09T18:25:42.347Z,22.52
2023-04-09T18:27:34.682Z,20.30
2023-04-09T18:29:20.978Z,20.95
2023-04-09T18:31:07.133Z,21.83
2023-04-09T18:32:49.220Z,22.55
2023-04-09T18:34:35.846Z,27.17
2023-04-09T18:36:15.896Z,30.42
2023-04-09T18:38:08.645Z,49.95
2023-04-09T18:39:54.843Z,56.30
2023-04-09T18:41:54.667Z,58.88
2023-04-09T18:43:54.629Z,60.00
2023-04-09T18:45:49.099Z,57.92
2023-04-09T18:47:35.845Z,68.22
2023-04-09T18:49:16.841Z,58.92
2023-04-09T18:51:02.851Z,46.05
2023-04-09T18:52:42.801Z,52.90
2023-04-09T18:54:35.665Z,59.42
2023-04-09T18:56:21.854Z,62.58
2023-04-09T18:58:22.690Z,62.75
2023-04-09T19:00:10.461Z,57.22
2023-04-09T19:02:05.468Z,66.50
2023-04-09T19:03:45.872Z,56.97
2023-04-09T19:05:40.681Z,47.65
2023-04-09T19:07:27.752Z,50.50
2023-04-09T19:09:13.907Z,54.95
2023-04-09T19:10:53.692Z,55.72
2023-04-09T19:12:41.040Z,54.67
2023-04-09T19:14:21.218Z,41.60
2023-04-09T19:16:15.682Z,35.72
2023-04-09T19:18:09.893Z,29.98
2023-04-09T19:19:49.865Z,25.50
2023-04-09T19:21:44.702Z,21.10
2023-04-09T19:23:31.080Z,32.17
2023-04-09T19:25:18.285Z,33.70
2023-04-09T19:26:59.644Z,32.95
2023-04-09T19:28:45.846Z,32.53
2023-04-09T19:30:25.882Z,26.13
2023-04-09T19:32:19.694Z,26.08
2023-04-09T19:34:06.058Z,28.50
2023-04-09T19:35:54.106Z,29.52
2023-04-09T19:37:48.731Z,39.40
2023-04-09T19:39:34.878Z,27.55
2023-04-09T19:41:22.080Z,25.88
2023-04-09T19:43:01.450Z,27.40
2023-04-09T19:44:46.837Z,28.50
2023-04-09T19:46:27.000Z,19.90
2023-04-09T19:48:20.721Z,17.98
2023-04-09T19:50:07.893Z,17.33
2023-04-09T19:52:07.734Z,16.17
2023-04-09T19:53:55.976Z,15.90
2023-04-09T19:55:49.928Z,14.30
2023-04-09T19:57:44.196Z,15.52
2023-04-09T19:59:29.795Z,15.40
2023-04-09T20:01:16.947Z,15.70
2023-04-09T20:03:05.849Z,13.52
2023-04-09T20:04:45.438Z,14.90
2023-04-09T20:06:31.811Z,13.85
2023-04-09T20:08:15.560Z,13.40
2023-04-09T20:10:10.689Z,19.80
2023-04-09T20:11:58.194Z,15.00
2023-04-09T20:13:58.708Z,18.55
2023-04-09T20:15:58.801Z,15.70
2023-04-09T20:17:51.928Z,17.50
2023-04-09T20:19:38.060Z,16.48
2023-04-09T20:21:18.822Z,41.40
2023-04-09T20:23:04.921Z,33.55
2023-04-09T20:24:45.001Z,42.50
2023-04-09T20:26:39.767Z,44.47
2023-04-09T20:28:26.237Z,32.83
2023-04-09T20:30:26.739Z,29.35
2023-04-09T20:32:14.032Z,23.98
2023-04-09T20:34:06.927Z,31.60
2023-04-09T20:35:46.745Z,28.08
2023-04-09T20:37:39.723Z,34.17
2023-04-09T20:39:26.187Z,29.08
2023-04-09T20:41:12.991Z,38.92
2023-04-09T20:42:54.106Z,47.28
2023-04-09T20:44:40.876Z,54.63
2023-04-09T20:46:21.133Z,53.25
2023-04-09T20:48:13.750Z,34.65
2023-04-09T20:49:59.987Z,22.80
2023-04-09T20:51:46.524Z,28.48
2023-04-09T20:53:39.751Z,35.47
2023-04-09T20:55:25.836Z,33.60
2023-04-09T20:57:25.779Z,30.10
2023-04-09T20:59:14.166Z,24.38
2023-04-09T21:01:07.299Z,29.38
2023-04-09T21:02:46.642Z,28.00
2023-04-09T21:04:39.768Z,20.52
2023-04-09T21:06:25.829Z,23.05
2023-04-09T21:08:15.433Z,33.13
2023-04-09T21:09:56.025Z,41.42
2023-04-09T21:11:42.118Z,30.55
2023-04-09T21:13:22.014Z,18.73
2023-04-09T21:15:17.733Z,16.33
2023-04-09T21:17:04.084Z,14.55
2023-04-09T21:19:03.800Z,12.57
2023-04-09T21:20:51.064Z,14.20
2023-04-09T21:22:43.930Z,12.30
2023-04-09T21:24:23.638Z,16.83
2023-04-09T21:26:18.754Z,28.15
2023-04-09T21:28:04.982Z,26.42
2023-04-09T21:29:51.070Z,22.27
2023-04-09T21:31:32.138Z,20.95
2023-04-09T21:33:17.940Z,15.30
2023-04-09T21:34:58.092Z,15.57
2023-04-09T21:36:51.771Z,15.43
2023-04-09T21:38:37.926Z,10.70
2023-04-09T21:40:37.815Z,12.50
2023-04-09T21:42:37.831Z,12.10
2023-04-09T21:44:31.176Z,14.88
2023-04-09T21:46:17.038Z,14.13
2023-04-09T21:47:58.398Z,13.35
2023-04-09T21:49:47.053Z,16.77
2023-04-09T21:51:27.572Z,17.27
2023-04-09T21:53:20.808Z,21.52
2023-04-09T21:55:07.049Z,23.13
2023-04-09T21:57:06.826Z,21.73
2023-04-09T21:58:53.896Z,22.45
2023-04-09T22:00:47.118Z,22.85
2023-04-09T22:02:26.831Z,24.42
2023-04-09T22:04:21.844Z,21.65
2023-04-09T22:06:07.938Z,19.45
2023-04-09T22:08:07.773Z,18.90
2023-04-09T22:09:55.512Z,13.40
2023-04-09T22:11:47.975Z,14.35
2023-04-09T22:13:27.809Z,11.80
2023-04-09T22:15:21.817Z,13.82
2023-04-09T22:17:09.028Z,13.57
2023-04-09T22:18:55.381Z,15.02
2023-04-09T22:20:37.034Z,14.32
2023-04-09T22:22:23.045Z,13.43
2023-04-09T22:24:03.126Z,14.23
2023-04-09T22:25:55.914Z,14.55
2023-04-09T22:27:42.078Z,14.02
2023-04-09T22:29:37.159Z,15.40
2023-04-09T22:31:23.814Z,17.08
2023-04-09T22:33:10.047Z,13.43
2023-04-09T22:34:56.134Z,14.20
2023-04-09T22:36:36.958Z,14.38
2023-04-09T22:38:23.103Z,13.18
2023-04-09T22:40:03.096Z,13.27
2023-04-09T22:41:55.882Z,13.13
2023-04-09T22:43:42.022Z,16.30
2023-04-09T22:45:42.805Z,15.68
2023-04-09T22:47:29.649Z,14.13
2023-04-09T22:49:23.081Z,14.45
2023-04-09T22:51:22.836Z,14.48
2023-04-09T22:53:10.939Z,30.33
2023-04-09T22:55:04.107Z,38.42
2023-04-09T22:56:56.877Z,38.28
2023-04-09T22:58:56.826Z,36.47
2023-04-09T23:00:50.132Z,29.70
2023-04-09T23:02:30.198Z,33.30
2023-04-09T23:04:24.888Z,28.50
2023-04-09T23:06:12.087Z,30.65
2023-04-09T23:08:11.893Z,27.75
2023-04-09T23:10:00.483Z,25.65
2023-04-09T23:11:53.061Z,19.88
2023-04-09T23:13:32.641Z,25.42
2023-04-09T23:15:26.848Z,23.15
2023-04-09T23:17:13.190Z,24.75
2023-04-09T23:18:59.103Z,23.23
2023-04-09T23:20:38.760Z,44.63
2023-04-09T23:22:25.090Z,15.20
2023-04-09T23:24:05.097Z,18.85
2023-04-09T23:25:59.882Z,17.98
2023-04-09T23:27:46.167Z,12.25
2023-04-09T23:29:45.911Z,12.73
2023-04-09T23:31:32.695Z,11.70
2023-04-09T23:33:26.108Z,12.48
2023-04-09T23:35:26.901Z,16.27
2023-04-09T23:37:13.870Z,11.85
2023-04-09T23:39:07.034Z,18.45
2023-04-09T23:40:47.634Z,11.98
2023-04-09T23:42:41.851Z,12.57
2023-04-09T23:44:27.946Z,12.57
2023-04-09T23:46:14.300Z,14.35
2023-04-09T23:47:53.829Z,16.88
2023-04-09T23:49:40.976Z,11.82
2023-04-09T23:51:25.319Z,12.90
2023-04-09T23:53:18.899Z,12.32
2023-04-09T23:55:06.947Z,12.27
2023-04-09T23:57:06.990Z,16.00
2023-04-09T23:58:55.075Z,11.00
